Bishop International Airport
KFNT : now visible

Airfield :











YOU CAN JOIN US ON...

 
LOGIN :

Register | Disclaimer

   EN    FR    IT 

 









Legend :    VFR   Marginal VFR   IFR   Intensive IFR   Very Intensive IFR
Visi :
Ceiling :
>= 8 km
>= 3000ft
5 to 8 km
1000 to 3000 ft
1500m to 5 km
500 to 1000 ft
800 to 1500m
200 to 500 ft
< 800m
< 200 ft
Symbols :   Thunderstorms  Fog  Heavy snow  Heavy precipitations  Wind > 20 kt






- Airport Elevation : 782 ft
- IATA code : FNT


KFNT - Bishop International

CURRENT METAR :
  • 291153Z AUTO 28010KT 10SM CLR M07/M13 A3036 RMK AO2 SLP293 T10721133 11061 21072 51026

EXPIRED METARs :
  • 291053Z AUTO 28011KT 10SM CLR M07/M13 A3034 RMK AO2 SLP286 T10721128
  • 290953Z AUTO 27013G22KT 10SM CLR M07/M13 A3031 RMK AO2 SLP275 T10671133
  • 290853Z AUTO 28013G22KT 10SM CLR M07/M13 A3028 RMK AO2 SLP266 T10671133 53021
  • 290753Z AUTO 28012G24KT 10SM CLR M06/ A3025 RMK AO2 SLP258 T1061

TAF KFNT
Valid from the 29 at 12:00 until the 01 at 12:00 UTC


291127Z 2912/0112 28010KT P6SM SCT045
FM291400 28013G20KT P6SM SCT045
FM291900 24013G20KT P6SM BKN120 OVC250
FM010100 20010KT P6SM BKN250
KZOB FIR / North America



MET'MAP, your aeronautical weather chart ! - Copyright ORBIFLY December 2007 - Disclaimer

ORBIFLY MET'MAP TEAM :

Programming & Development : Alexandra Zaïnal
Original concept : Baudouin d'Aumeries
Technical & hardware support : Manuel Goepfert
Assistance : Marc-Olivier Méhu




SOURCES & CREDITS :

   NOAA       Earth
Advisory